createdAt,value
2023-11-28T00:00:01.881Z,0.00
2023-11-28T00:01:01.933Z,0.00
2023-11-28T00:02:02.223Z,0.00
2023-11-28T00:03:02.274Z,0.00
2023-11-28T00:04:02.250Z,0.00
2023-11-28T00:05:02.265Z,0.00
2023-11-28T00:06:02.344Z,0.00
2023-11-28T00:07:02.415Z,0.00
2023-11-28T00:08:02.552Z,0.00
2023-11-28T00:09:02.558Z,0.00
2023-11-28T00:10:02.648Z,0.00
2023-11-28T00:11:02.739Z,0.00
2023-11-28T00:12:02.815Z,0.00
2023-11-28T00:13:02.859Z,0.00
2023-11-28T00:14:03.003Z,0.00
2023-11-28T00:15:03.024Z,0.00
2023-11-28T00:16:06.003Z,0.00
2023-11-28T00:17:03.201Z,0.00
2023-11-28T00:18:03.416Z,0.00
2023-11-28T00:19:03.440Z,0.00
2023-11-28T00:20:03.449Z,0.00
2023-11-28T00:21:03.478Z,0.00
2023-11-28T00:22:03.569Z,0.00
2023-11-28T00:23:03.667Z,0.00
2023-11-28T00:24:03.753Z,0.00
2023-11-28T00:25:03.803Z,0.00
2023-11-28T00:26:03.922Z,0.00
2023-11-28T00:27:03.996Z,0.00
2023-11-28T00:28:04.068Z,0.00
2023-11-28T00:29:04.207Z,0.00
2023-11-28T00:30:04.241Z,0.00
2023-11-28T00:31:04.360Z,0.00
2023-11-28T00:32:04.411Z,0.00
2023-11-28T00:33:04.488Z,0.00
2023-11-28T00:34:04.545Z,0.00
2023-11-28T00:35:04.683Z,0.00
2023-11-28T00:36:04.733Z,0.00
2023-11-28T00:37:04.805Z,0.00
2023-11-28T00:38:04.877Z,0.00
2023-11-28T00:39:04.956Z,0.00
2023-11-28T00:40:05.049Z,0.00
2023-11-28T00:41:05.149Z,0.00
2023-11-28T00:42:05.240Z,0.00
2023-11-28T00:43:05.266Z,0.00
2023-11-28T00:44:05.392Z,0.00
2023-11-28T00:45:05.448Z,0.00
2023-11-28T00:46:05.526Z,0.00
2023-11-28T00:47:05.704Z,0.00
2023-11-28T00:48:05.817Z,0.00
2023-11-28T00:49:05.790Z,0.00
2023-11-28T00:50:05.949Z,0.00
2023-11-28T00:51:05.960Z,0.00
2023-11-28T00:52:06.053Z,0.00
2023-11-28T00:53:06.313Z,0.00
2023-11-28T00:54:06.214Z,0.00
2023-11-28T00:55:06.302Z,0.00
2023-11-28T00:56:06.416Z,0.00
2023-11-28T00:57:06.465Z,0.00
2023-11-28T00:58:06.539Z,0.00
2023-11-28T00:59:06.659Z,0.00
2023-11-28T01:00:06.690Z,0.00
2023-11-28T01:01:06.773Z,0.00
2023-11-28T01:02:06.985Z,0.00
2023-11-28T01:03:07.076Z,0.00
2023-11-28T01:04:07.050Z,0.00
2023-11-28T01:05:07.084Z,0.00
2023-11-28T01:06:07.158Z,0.00
2023-11-28T01:07:07.264Z,0.00
2023-11-28T01:08:07.354Z,0.00
2023-11-28T01:09:07.367Z,0.00
2023-11-28T01:10:07.459Z,0.00
2023-11-28T01:11:07.541Z,0.00
2023-11-28T01:12:07.631Z,0.00
2023-11-28T01:13:07.697Z,0.00
2023-11-28T01:14:07.815Z,0.00
2023-11-28T01:15:07.846Z,0.00
2023-11-28T01:16:07.984Z,0.00
2023-11-28T01:17:08.123Z,0.00
2023-11-28T01:18:08.190Z,0.00
2023-11-28T01:19:08.174Z,0.00
2023-11-28T01:20:08.264Z,0.00
2023-11-28T01:21:08.313Z,0.00
2023-11-28T01:22:08.433Z,0.00
2023-11-28T01:23:08.499Z,0.00
2023-11-28T01:24:08.580Z,0.00
2023-11-28T01:25:08.672Z,0.00
2023-11-28T01:26:08.771Z,0.00
2023-11-28T01:27:08.855Z,0.00
2023-11-28T01:28:08.928Z,0.00
2023-11-28T01:29:08.977Z,0.00
2023-11-28T01:30:09.078Z,0.00
2023-11-28T01:31:09.153Z,0.00
2023-11-28T01:32:09.324Z,0.00
2023-11-28T01:33:09.312Z,0.00
2023-11-28T01:34:16.942Z,0.00
2023-11-28T01:35:09.592Z,0.00
2023-11-28T01:36:09.549Z,0.00
2023-11-28T01:37:09.645Z,0.00
2023-11-28T01:38:09.732Z,0.00
2023-11-28T01:39:09.782Z,0.00
2023-11-28T01:40:09.894Z,0.00
2023-11-28T01:41:09.955Z,0.00
2023-11-28T01:42:10.078Z,0.00
2023-11-28T01:43:10.128Z,0.00
2023-11-28T01:44:10.310Z,0.00
2023-11-28T01:45:10.455Z,0.00
2023-11-28T01:46:10.391Z,0.00
2023-11-28T01:47:10.467Z,0.00
2023-11-28T01:48:10.543Z,0.00
2023-11-28T01:49:10.675Z,0.00
2023-11-28T01:50:10.768Z,0.00
2023-11-28T01:51:10.806Z,0.00
2023-11-28T01:52:10.925Z,0.00
2023-11-28T01:53:11.060Z,0.00
2023-11-28T01:54:11.065Z,0.00
2023-11-28T01:55:11.130Z,0.00
2023-11-28T01:56:11.190Z,0.00
2023-11-28T01:57:11.323Z,0.00
2023-11-28T01:58:11.368Z,0.00
2023-11-28T01:59:11.492Z,0.00
2023-11-28T02:00:11.562Z,0.00
2023-11-28T02:01:11.647Z,0.00
2023-11-28T02:02:11.843Z,0.00
2023-11-28T02:03:11.985Z,0.00
2023-11-28T02:04:12.075Z,0.00
2023-11-28T02:05:12.044Z,0.00
2023-11-28T02:06:12.125Z,0.00
2023-11-28T02:07:12.209Z,0.00
2023-11-28T02:08:12.276Z,0.00
2023-11-28T02:09:12.368Z,0.00
2023-11-28T02:10:12.481Z,0.00
2023-11-28T02:11:12.535Z,0.00
2023-11-28T02:12:12.610Z,0.00
2023-11-28T02:13:12.688Z,0.00
2023-11-28T02:14:12.811Z,0.00
2023-11-28T02:15:12.915Z,0.00
2023-11-28T02:16:13.014Z,0.00
2023-11-28T02:17:13.086Z,0.00
2023-11-28T02:18:13.132Z,0.00
2023-11-28T02:19:13.207Z,0.00
2023-11-28T02:20:13.276Z,0.00
2023-11-28T02:21:13.372Z,0.00
2023-11-28T02:22:13.501Z,0.00
2023-11-28T02:23:13.589Z,0.00
2023-11-28T02:24:13.644Z,0.00
2023-11-28T02:25:13.710Z,0.00
2023-11-28T02:26:13.807Z,0.00
2023-11-28T02:27:13.888Z,0.00
2023-11-28T02:28:13.951Z,0.00
2023-11-28T02:29:14.031Z,0.00
2023-11-28T02:30:14.094Z,0.00
2023-11-28T02:31:14.200Z,0.00
2023-11-28T02:32:14.374Z,0.00
2023-11-28T02:33:14.353Z,0.00
2023-11-28T02:34:14.421Z,0.00
2023-11-28T02:35:20.930Z,0.00
2023-11-28T02:36:14.568Z,0.00
2023-11-28T02:37:14.635Z,0.00
2023-11-28T02:38:14.712Z,0.00
2023-11-28T02:39:14.788Z,0.00
2023-11-28T02:40:14.865Z,0.00
2023-11-28T02:41:14.955Z,0.00
2023-11-28T02:42:15.041Z,0.00
2023-11-28T02:43:15.128Z,0.00
2023-11-28T02:44:15.207Z,0.00
2023-11-28T02:45:15.298Z,0.00
2023-11-28T02:46:15.365Z,0.00
2023-11-28T02:47:15.476Z,0.00
2023-11-28T02:48:15.513Z,0.00
2023-11-28T02:49:15.666Z,0.00
2023-11-28T02:50:15.790Z,0.00
2023-11-28T02:51:15.782Z,0.00
2023-11-28T02:52:15.903Z,0.00
2023-11-28T02:53:15.949Z,0.00
2023-11-28T02:54:16.050Z,0.00
2023-11-28T02:55:16.125Z,0.00
2023-11-28T02:56:16.229Z,0.00
2023-11-28T02:57:16.333Z,0.00
2023-11-28T02:58:16.416Z,0.00
2023-11-28T02:59:16.510Z,0.00
2023-11-28T03:00:16.588Z,0.00
2023-11-28T03:01:16.739Z,0.00
2023-11-28T03:02:16.873Z,0.00
2023-11-28T03:03:16.972Z,0.00
2023-11-28T03:04:17.051Z,0.00
2023-11-28T03:05:17.053Z,0.00
2023-11-28T03:06:17.117Z,0.00
2023-11-28T03:07:17.498Z,0.00
2023-11-28T03:08:17.277Z,0.00
2023-11-28T03:09:17.391Z,0.00
2023-11-28T03:10:17.426Z,0.00
2023-11-28T03:11:17.488Z,0.00
2023-11-28T03:12:17.572Z,0.00
2023-11-28T03:13:17.642Z,0.00
2023-11-28T03:14:17.710Z,0.00
2023-11-28T03:15:17.787Z,0.00
2023-11-28T03:16:17.887Z,0.00
2023-11-28T03:17:17.973Z,0.00
2023-11-28T03:18:18.003Z,0.00
2023-11-28T03:19:18.062Z,0.00
2023-11-28T03:20:18.135Z,0.00
2023-11-28T03:21:18.214Z,0.00
2023-11-28T03:22:18.306Z,0.00
2023-11-28T03:23:18.352Z,0.00
2023-11-28T03:24:18.429Z,0.00
2023-11-28T03:25:18.489Z,0.00
2023-11-28T03:26:18.586Z,0.00
2023-11-28T03:27:18.684Z,0.00
2023-11-28T03:28:18.734Z,0.00
2023-11-28T03:29:18.823Z,0.00
2023-11-28T03:30:18.889Z,0.00
2023-11-28T03:31:18.987Z,0.00
2023-11-28T03:32:19.134Z,0.00
2023-11-28T03:33:19.192Z,0.00
2023-11-28T03:34:19.253Z,0.00
2023-11-28T03:35:19.327Z,0.00
2023-11-28T03:36:19.375Z,0.00
2023-11-28T03:37:19.499Z,0.00
2023-11-28T03:38:19.542Z,0.00
2023-11-28T03:39:19.669Z,0.00
2023-11-28T03:40:19.746Z,0.00
2023-11-28T03:41:19.829Z,0.00
2023-11-28T03:42:19.949Z,0.00
2023-11-28T03:43:20.030Z,0.00
2023-11-28T03:44:20.059Z,0.00
2023-11-28T03:45:20.128Z,0.00
2023-11-28T03:46:20.273Z,0.00
2023-11-28T03:47:20.352Z,0.00
2023-11-28T03:48:20.377Z,0.00
2023-11-28T03:49:20.464Z,0.00
2023-11-28T03:50:20.551Z,0.00
2023-11-28T03:51:20.650Z,0.00
2023-11-28T03:52:20.751Z,0.00
2023-11-28T03:53:20.853Z,0.00
2023-11-28T03:54:20.930Z,0.00
2023-11-28T03:55:20.987Z,0.00
2023-11-28T03:56:21.076Z,0.00
2023-11-28T03:57:21.199Z,0.00
2023-11-28T03:58:21.253Z,0.00
2023-11-28T03:59:21.351Z,0.00
2023-11-28T04:00:21.434Z,0.00
2023-11-28T04:01:21.545Z,0.00
2023-11-28T04:02:21.794Z,0.00
2023-11-28T04:03:21.812Z,0.00
2023-11-28T04:04:21.814Z,0.00
2023-11-28T04:05:21.902Z,0.00
2023-11-28T04:06:21.960Z,0.00
2023-11-28T04:07:22.048Z,0.00
2023-11-28T04:08:22.109Z,0.00
2023-11-28T04:09:22.198Z,0.00
2023-11-28T04:10:22.287Z,0.00
2023-11-28T04:11:22.370Z,0.00
2023-11-28T04:12:22.469Z,0.00
2023-11-28T04:13:22.559Z,0.00
2023-11-28T04:14:22.651Z,0.00
2023-11-28T04:15:22.739Z,0.00
2023-11-28T04:16:22.817Z,0.00
2023-11-28T04:17:22.942Z,0.00
2023-11-28T04:18:23.131Z,0.00
2023-11-28T04:19:23.074Z,0.00
2023-11-28T04:20:23.140Z,0.00
2023-11-28T04:21:23.228Z,0.00
2023-11-28T04:22:23.342Z,0.00
2023-11-28T04:23:23.375Z,0.00
2023-11-28T04:24:23.471Z,0.00
2023-11-28T04:25:23.560Z,0.00
2023-11-28T04:26:23.655Z,0.00
2023-11-28T04:27:23.740Z,0.00
2023-11-28T04:28:23.839Z,0.00
2023-11-28T04:29:23.917Z,0.00
2023-11-28T04:30:23.999Z,0.00
2023-11-28T04:31:24.144Z,0.00
2023-11-28T04:32:24.258Z,0.00
2023-11-28T04:33:24.293Z,0.00
2023-11-28T04:34:24.318Z,0.00
2023-11-28T04:35:24.401Z,0.00
2023-11-28T04:36:24.484Z,0.00
2023-11-28T04:37:24.584Z,0.00
2023-11-28T04:38:24.627Z,0.00
2023-11-28T04:39:24.721Z,0.00
2023-11-28T04:40:24.785Z,0.00
2023-11-28T04:41:24.867Z,0.00
2023-11-28T04:42:25.022Z,0.00
2023-11-28T04:43:25.051Z,0.00
2023-11-28T04:44:25.123Z,0.00
2023-11-28T04:45:25.197Z,0.00
2023-11-28T04:46:25.320Z,0.00
2023-11-28T04:47:25.401Z,0.00
2023-11-28T04:48:25.411Z,0.00
2023-11-28T04:49:25.498Z,0.00
2023-11-28T04:50:25.604Z,0.00
2023-11-28T04:51:25.675Z,0.00
2023-11-28T04:52:25.786Z,0.00
2023-11-28T04:53:25.939Z,0.00
2023-11-28T04:54:25.908Z,0.00
2023-11-28T04:55:26.002Z,0.00
2023-11-28T04:56:26.070Z,0.00
2023-11-28T04:57:26.186Z,0.00
2023-11-28T04:58:26.250Z,0.00
2023-11-28T04:59:26.331Z,0.00
2023-11-28T05:00:26.411Z,0.00
2023-11-28T05:01:26.509Z,0.00
2023-11-28T05:02:26.720Z,0.00
2023-11-28T05:03:26.747Z,0.00
2023-11-28T05:04:26.752Z,0.00
2023-11-28T05:05:26.807Z,0.00
2023-11-28T05:06:26.870Z,0.00
2023-11-28T05:07:26.967Z,0.00
2023-11-28T05:08:27.030Z,0.00
2023-11-28T05:09:27.114Z,0.00
2023-11-28T05:10:27.194Z,0.00
2023-11-28T05:11:27.291Z,0.00
2023-11-28T05:12:27.383Z,0.00
2023-11-28T05:13:27.432Z,0.00
2023-11-28T05:14:27.511Z,0.00
2023-11-28T05:15:27.611Z,0.00
2023-11-28T05:16:30.034Z,0.00
2023-11-28T05:17:27.880Z,0.00
2023-11-28T05:18:27.944Z,0.00
2023-11-28T05:19:27.928Z,0.00
2023-11-28T05:20:28.016Z,0.00
2023-11-28T05:21:28.116Z,0.00
2023-11-28T05:22:28.188Z,0.00
2023-11-28T05:23:28.279Z,0.00
2023-11-28T05:24:28.342Z,0.00
2023-11-28T05:25:28.430Z,0.00
2023-11-28T05:26:28.501Z,0.00
2023-11-28T05:27:28.595Z,0.00
2023-11-28T05:28:28.641Z,0.00
2023-11-28T05:29:28.738Z,0.00
2023-11-28T05:30:28.803Z,0.00
2023-11-28T05:31:28.927Z,0.00
2023-11-28T05:32:29.052Z,0.00
2023-11-28T05:33:29.117Z,0.00
2023-11-28T05:34:29.183Z,0.00
2023-11-28T05:35:29.262Z,0.00
2023-11-28T05:36:29.326Z,0.00
2023-11-28T05:37:29.431Z,0.00
2023-11-28T05:38:29.472Z,0.00
2023-11-28T05:39:29.560Z,0.00
2023-11-28T05:40:29.655Z,0.00
2023-11-28T05:41:29.744Z,0.00
2023-11-28T05:42:29.840Z,0.00
2023-11-28T05:43:29.919Z,0.00
2023-11-28T05:44:29.992Z,0.00
2023-11-28T05:45:30.084Z,0.00
2023-11-28T05:46:30.185Z,0.00
2023-11-28T05:47:30.549Z,0.00
2023-11-28T05:48:30.470Z,0.00
2023-11-28T05:49:30.443Z,0.00
2023-11-28T05:50:30.517Z,0.00
2023-11-28T05:51:30.604Z,0.00
2023-11-28T05:52:30.700Z,0.00
2023-11-28T05:53:30.785Z,0.00
2023-11-28T05:54:30.884Z,0.00
2023-11-28T05:55:30.978Z,0.00
2023-11-28T05:56:31.028Z,0.00
2023-11-28T05:57:31.156Z,0.00
2023-11-28T05:58:31.230Z,0.00
2023-11-28T05:59:31.295Z,0.00
2023-11-28T06:00:31.385Z,0.00
2023-11-28T06:01:31.494Z,0.00
2023-11-28T06:02:31.636Z,0.00
2023-11-28T06:03:31.798Z,0.00
2023-11-28T06:04:31.879Z,0.00
2023-11-28T06:05:31.855Z,0.00
2023-11-28T06:06:31.943Z,0.00
2023-11-28T06:07:32.129Z,0.00
2023-11-28T06:08:32.083Z,0.00
2023-11-28T06:09:32.184Z,0.00
2023-11-28T06:10:34.058Z,0.00
2023-11-28T06:11:32.362Z,0.00
2023-11-28T06:12:32.465Z,0.00
2023-11-28T06:13:32.583Z,0.00
2023-11-28T06:14:32.608Z,0.00
2023-11-28T06:15:32.704Z,0.00
2023-11-28T06:16:32.803Z,0.00
2023-11-28T06:17:32.950Z,0.00
2023-11-28T06:18:32.955Z,0.00
2023-11-28T06:19:33.034Z,0.00
2023-11-28T06:20:33.084Z,0.00
2023-11-28T06:21:33.166Z,0.00
2023-11-28T06:22:33.469Z,0.00
2023-11-28T06:23:33.335Z,0.00
2023-11-28T06:24:33.428Z,0.00
2023-11-28T06:25:33.667Z,0.00
2023-11-28T06:26:33.586Z,0.00
2023-11-28T06:27:33.683Z,0.00
2023-11-28T06:28:33.729Z,0.00
2023-11-28T06:29:33.814Z,0.00
2023-11-28T06:30:33.938Z,0.00
2023-11-28T06:31:34.099Z,0.00
2023-11-28T06:32:37.505Z,0.00
2023-11-28T06:33:34.142Z,0.00
2023-11-28T06:34:34.337Z,0.00
2023-11-28T06:35:34.544Z,0.00
2023-11-28T06:36:34.377Z,0.00
2023-11-28T06:37:34.504Z,0.00
2023-11-28T06:38:34.537Z,0.00
2023-11-28T06:39:34.608Z,0.00
2023-11-28T06:40:34.715Z,0.00
2023-11-28T06:41:34.764Z,0.00
2023-11-28T06:42:34.869Z,0.00
2023-11-28T06:43:34.965Z,0.00
2023-11-28T06:44:35.022Z,4.00
2023-11-28T06:45:35.101Z,4.00
2023-11-28T06:46:35.198Z,4.00
2023-11-28T06:47:35.336Z,0.00
2023-11-28T06:48:35.424Z,4.00
2023-11-28T06:49:35.503Z,4.00
2023-11-28T06:50:35.552Z,4.00
2023-11-28T06:51:35.648Z,4.00
2023-11-28T06:52:35.714Z,8.00
2023-11-28T06:53:35.778Z,8.00
2023-11-28T06:54:35.842Z,8.00
2023-11-28T06:55:35.986Z,12.00
2023-11-28T06:56:36.054Z,12.00
2023-11-28T06:57:36.155Z,12.00
2023-11-28T06:58:36.240Z,12.00
2023-11-28T06:59:36.328Z,16.00
2023-11-28T07:00:36.402Z,16.00
2023-11-28T07:01:36.614Z,20.00
2023-11-28T07:02:36.637Z,20.00
2023-11-28T07:03:36.656Z,20.00
2023-11-28T07:04:36.733Z,20.00
2023-11-28T07:05:36.787Z,20.00
2023-11-28T07:06:36.879Z,24.00
2023-11-28T07:07:37.222Z,28.00
2023-11-28T07:08:37.036Z,32.00
2023-11-28T07:09:37.113Z,32.00
2023-11-28T07:10:37.206Z,32.00
2023-11-28T07:11:37.256Z,40.00
2023-11-28T07:12:37.350Z,40.00
2023-11-28T07:13:37.436Z,44.00
2023-11-28T07:14:37.493Z,44.00
2023-11-28T07:15:37.665Z,48.00
2023-11-28T07:16:37.813Z,52.00
2023-11-28T07:17:37.824Z,60.00
2023-11-28T07:18:38.074Z,68.00
2023-11-28T07:19:37.955Z,64.00
2023-11-28T07:20:37.995Z,68.00
2023-11-28T07:21:38.078Z,68.00
2023-11-28T07:22:38.185Z,76.00
2023-11-28T07:23:38.226Z,76.00
2023-11-28T07:24:38.322Z,76.00
2023-11-28T07:25:38.415Z,80.00
2023-11-28T07:26:38.481Z,92.00
2023-11-28T07:27:38.605Z,104.00
2023-11-28T07:28:38.719Z,116.00
2023-11-28T07:29:38.789Z,124.00
2023-11-28T07:30:38.848Z,140.00
2023-11-28T07:31:38.970Z,164.00
2023-11-28T07:32:39.223Z,204.00
2023-11-28T07:33:39.186Z,236.00
2023-11-28T07:34:39.301Z,260.00
2023-11-28T07:35:39.304Z,284.00
2023-11-28T07:36:39.353Z,244.00
2023-11-28T07:37:39.488Z,236.00
2023-11-28T07:38:39.516Z,224.00
2023-11-28T07:39:39.629Z,212.00
2023-11-28T07:40:39.713Z,204.00
2023-11-28T07:41:39.753Z,224.00
2023-11-28T07:42:39.842Z,228.00
2023-11-28T07:43:40.027Z,224.00
2023-11-28T07:44:39.974Z,264.00
2023-11-28T07:45:40.081Z,272.00
2023-11-28T07:46:40.220Z,252.00
2023-11-28T07:47:40.248Z,220.00
2023-11-28T07:48:40.316Z,216.00
2023-11-28T07:49:40.397Z,216.00
2023-11-28T07:50:40.460Z,240.00
2023-11-28T07:51:40.534Z,260.00
2023-11-28T07:52:40.664Z,256.00
2023-11-28T07:53:40.687Z,236.00
2023-11-28T07:54:40.780Z,236.00
2023-11-28T07:55:40.847Z,240.00
2023-11-28T07:56:40.934Z,256.00
2023-11-28T07:57:41.025Z,280.00
2023-11-28T07:58:41.125Z,320.00
2023-11-28T07:59:41.203Z,340.00
2023-11-28T08:00:41.324Z,336.00
2023-11-28T08:01:41.484Z,312.00
2023-11-28T08:02:41.556Z,304.00
2023-11-28T08:03:41.600Z,288.00
2023-11-28T08:04:41.721Z,284.00
2023-11-28T08:05:41.719Z,288.00
2023-11-28T08:06:41.784Z,292.00
2023-11-28T08:07:41.909Z,288.00
2023-11-28T08:08:41.939Z,276.00
2023-11-28T08:09:42.017Z,268.00
2023-11-28T08:10:42.169Z,260.00
2023-11-28T08:11:42.186Z,256.00
2023-11-28T08:12:42.259Z,256.00
2023-11-28T08:13:42.409Z,260.00
2023-11-28T08:14:42.418Z,276.00
2023-11-28T08:15:42.505Z,280.00
2023-11-28T08:16:42.731Z,276.00
2023-11-28T08:17:42.824Z,320.00
2023-11-28T08:18:43.564Z,368.00
2023-11-28T08:19:42.828Z,432.00
2023-11-28T08:20:42.905Z,504.00
2023-11-28T08:21:42.984Z,488.00
2023-11-28T08:22:43.098Z,492.00
2023-11-28T08:23:43.112Z,460.00
2023-11-28T08:24:45.185Z,436.00
2023-11-28T08:25:43.271Z,468.00
2023-11-28T08:26:43.336Z,468.00
2023-11-28T08:27:43.430Z,464.00
2023-11-28T08:28:43.596Z,492.00
2023-11-28T08:29:43.618Z,540.00
2023-11-28T08:30:43.690Z,588.00
2023-11-28T08:31:43.994Z,620.00
2023-11-28T08:32:43.953Z,652.00
2023-11-28T08:33:43.985Z,676.00
2023-11-28T08:34:44.028Z,680.00
2023-11-28T08:35:44.050Z,680.00
2023-11-28T08:36:44.132Z,668.00
2023-11-28T08:37:44.267Z,656.00
2023-11-28T08:38:44.281Z,632.00
2023-11-28T08:39:44.371Z,588.00
2023-11-28T08:40:44.546Z,540.00
2023-11-28T08:41:44.542Z,508.00
2023-11-28T08:42:44.613Z,500.00
2023-11-28T08:43:44.682Z,500.00
2023-11-28T08:44:44.747Z,512.00
2023-11-28T08:45:44.868Z,516.00
2023-11-28T08:46:45.033Z,492.00
2023-11-28T08:47:45.074Z,460.00
2023-11-28T08:48:45.082Z,444.00
2023-11-28T08:49:45.243Z,432.00
2023-11-28T08:50:45.233Z,436.00
2023-11-28T08:51:45.301Z,452.00
2023-11-28T08:52:45.421Z,460.00
2023-11-28T08:53:45.462Z,464.00
2023-11-28T08:54:45.539Z,468.00
2023-11-28T08:55:45.676Z,492.00
2023-11-28T08:56:45.702Z,540.00
2023-11-28T08:57:45.810Z,592.00
2023-11-28T08:58:45.882Z,660.00
2023-11-28T08:59:45.957Z,708.00
2023-11-28T09:00:46.030Z,700.00
2023-11-28T09:01:46.240Z,720.00
2023-11-28T09:02:46.268Z,744.00
2023-11-28T09:03:46.480Z,760.00
2023-11-28T09:04:46.356Z,820.00
2023-11-28T09:05:46.405Z,920.00
2023-11-28T09:06:46.527Z,1040.00
2023-11-28T09:07:46.619Z,1120.00
2023-11-28T09:08:48.199Z,1236.00
2023-11-28T09:09:46.726Z,1376.00
2023-11-28T09:10:46.930Z,1532.00
2023-11-28T09:11:46.908Z,1608.00
2023-11-28T09:12:47.019Z,1476.00
2023-11-28T09:13:47.066Z,1420.00
2023-11-28T09:14:53.936Z,1424.00
2023-11-28T09:15:47.726Z,1396.00
2023-11-28T09:16:47.347Z,1384.00
2023-11-28T09:17:47.444Z,1408.00
2023-11-28T09:18:51.268Z,1432.00
2023-11-28T09:19:47.571Z,1464.00
2023-11-28T09:20:47.619Z,1520.00
2023-11-28T09:21:47.685Z,1552.00
2023-11-28T09:22:47.788Z,1584.00
2023-11-28T09:23:47.805Z,1612.00
2023-11-28T09:24:47.882Z,1648.00
2023-11-28T09:25:53.116Z,1692.00
2023-11-28T09:26:48.101Z,1732.00
2023-11-28T09:27:48.156Z,1744.00
2023-11-28T09:28:48.298Z,1768.00
2023-11-28T09:29:48.310Z,1932.00
2023-11-28T09:30:48.440Z,2104.00
2023-11-28T09:31:48.522Z,2232.00
2023-11-28T09:32:48.763Z,2308.00
2023-11-28T09:33:48.669Z,2380.00
2023-11-28T09:34:48.802Z,2396.00
2023-11-28T09:35:48.862Z,2364.00
2023-11-28T09:36:48.913Z,2440.00
2023-11-28T09:37:49.036Z,2424.00
2023-11-28T09:38:49.064Z,2380.00
2023-11-28T09:39:49.130Z,2396.00
2023-11-28T09:40:49.309Z,2340.00
2023-11-28T09:41:49.651Z,2312.00
2023-11-28T09:42:49.390Z,2308.00
2023-11-28T09:43:49.520Z,2384.00
2023-11-28T09:44:49.538Z,2440.00
2023-11-28T09:45:49.692Z,2416.00
2023-11-28T09:46:49.800Z,2368.00
2023-11-28T09:47:50.089Z,2372.00
2023-11-28T09:48:49.833Z,2492.00
2023-11-28T09:49:49.915Z,2784.00
2023-11-28T09:50:49.978Z,2988.00
2023-11-28T09:51:50.192Z,2992.00
2023-11-28T09:52:50.501Z,3144.00
2023-11-28T09:53:50.171Z,3572.00
2023-11-28T09:54:50.347Z,4024.00
2023-11-28T09:55:50.420Z,4280.00
2023-11-28T09:56:50.447Z,4260.00
2023-11-28T09:57:50.794Z,4104.00
2023-11-28T09:58:50.622Z,4400.00
2023-11-28T09:59:51.660Z,4288.00
2023-11-28T10:00:50.782Z,4452.00
2023-11-28T10:01:51.027Z,4592.00
2023-11-28T10:02:51.125Z,4500.00
2023-11-28T10:03:51.105Z,4876.00
2023-11-28T10:04:51.167Z,4784.00
2023-11-28T10:05:51.216Z,4580.00
2023-11-28T10:06:51.313Z,4888.00
2023-11-28T10:07:51.601Z,5160.00
2023-11-28T10:08:51.475Z,5212.00
2023-11-28T10:09:51.578Z,5008.00
2023-11-28T10:10:51.643Z,4500.00
2023-11-28T10:11:51.730Z,3948.00
2023-11-28T10:12:52.028Z,3776.00
2023-11-28T10:13:51.874Z,4312.00
2023-11-28T10:14:51.957Z,4388.00
2023-11-28T10:15:52.041Z,5080.00
2023-11-28T10:16:52.233Z,5128.00
2023-11-28T10:17:52.295Z,5380.00
2023-11-28T10:18:52.267Z,5984.00
2023-11-28T10:19:52.400Z,6700.00
2023-11-28T10:20:52.467Z,5936.00
2023-11-28T10:21:52.524Z,5196.00
2023-11-28T10:22:52.680Z,4772.00
2023-11-28T10:23:52.688Z,4576.00
2023-11-28T10:24:52.752Z,4788.00
2023-11-28T10:25:52.913Z,5296.00
2023-11-28T10:26:52.935Z,5764.00
2023-11-28T10:27:53.066Z,6144.00
2023-11-28T10:28:53.068Z,6872.00
2023-11-28T10:29:53.142Z,6860.00
2023-11-28T10:30:54.373Z,6248.00
2023-11-28T10:31:53.367Z,6000.00
2023-11-28T10:32:53.446Z,5532.00
2023-11-28T10:33:53.491Z,5432.00
2023-11-28T10:34:53.674Z,5244.00
2023-11-28T10:35:53.673Z,5428.00
2023-11-28T10:36:53.774Z,6160.00
2023-11-28T10:37:53.879Z,7068.00
2023-11-28T10:38:53.910Z,6772.00
2023-11-28T10:39:54.005Z,6516.00
2023-11-28T10:40:54.357Z,7016.00
2023-11-28T10:41:54.174Z,7508.00
2023-11-28T10:42:54.258Z,7352.00
2023-11-28T10:43:54.380Z,6552.00
2023-11-28T10:44:54.402Z,6120.00
2023-11-28T10:45:54.493Z,5604.00
2023-11-28T10:46:54.644Z,4872.00
2023-11-28T10:47:54.781Z,4332.00
2023-11-28T10:48:54.757Z,4268.00
2023-11-28T10:49:54.888Z,4340.00
2023-11-28T10:50:54.936Z,4416.00
2023-11-28T10:51:55.020Z,4272.00
2023-11-28T10:52:55.174Z,4900.00
2023-11-28T10:53:55.186Z,4848.00
2023-11-28T10:54:55.258Z,4744.00
2023-11-28T10:55:55.373Z,4740.00
2023-11-28T10:56:55.427Z,4308.00
2023-11-28T10:57:56.026Z,4320.00
2023-11-28T10:58:55.666Z,4800.00
2023-11-28T10:59:55.664Z,4912.00
2023-11-28T11:00:55.777Z,5016.00
2023-11-28T11:01:55.846Z,5144.00
2023-11-28T11:02:55.967Z,5420.00
2023-11-28T11:03:55.978Z,5788.00
2023-11-28T11:04:56.062Z,6484.00
2023-11-28T11:05:56.121Z,6804.00
2023-11-28T11:06:56.206Z,6468.00
2023-11-28T11:07:56.286Z,5788.00
2023-11-28T11:08:56.393Z,4844.00
2023-11-28T11:09:56.445Z,4308.00
2023-11-28T11:10:56.548Z,4336.00
2023-11-28T11:11:56.583Z,4184.00
2023-11-28T11:12:56.678Z,4156.00
2023-11-28T11:13:56.789Z,4276.00
2023-11-28T11:14:56.857Z,4460.00
2023-11-28T11:15:56.939Z,4272.00
2023-11-28T11:16:57.035Z,4180.00
2023-11-28T11:17:57.174Z,4112.00
2023-11-28T11:18:57.156Z,4124.00
2023-11-28T11:19:57.257Z,4264.00
2023-11-28T11:20:57.319Z,4316.00
2023-11-28T11:21:57.491Z,4396.00
2023-11-28T11:22:57.528Z,4508.00
2023-11-28T11:23:57.561Z,4632.00
2023-11-28T11:24:57.649Z,4608.00
2023-11-28T11:25:57.735Z,4668.00
2023-11-28T11:26:57.796Z,4880.00
2023-11-28T11:27:57.940Z,5144.00
2023-11-28T11:28:58.025Z,5512.00
2023-11-28T11:29:58.050Z,5688.00
2023-11-28T11:30:58.133Z,5860.00
2023-11-28T11:31:58.218Z,5636.00
2023-11-28T11:32:58.303Z,5416.00
2023-11-28T11:33:58.422Z,4964.00
2023-11-28T11:34:58.473Z,4364.00
2023-11-28T11:35:58.548Z,3916.00
2023-11-28T11:36:58.617Z,3724.00
2023-11-28T11:37:58.758Z,3704.00
2023-11-28T11:38:58.772Z,3780.00
2023-11-28T11:39:58.865Z,3720.00
2023-11-28T11:40:58.966Z,3696.00
2023-11-28T11:41:59.000Z,3672.00
2023-11-28T11:42:59.095Z,3480.00
2023-11-28T11:43:59.184Z,3416.00
2023-11-28T11:44:59.218Z,3376.00
2023-11-28T11:45:59.307Z,3260.00
2023-11-28T11:46:59.378Z,3204.00
2023-11-28T11:47:59.525Z,3052.00
2023-11-28T11:48:59.604Z,2980.00
2023-11-28T11:49:59.632Z,2952.00
2023-11-28T11:50:59.694Z,2896.00
2023-11-28T11:51:59.736Z,2960.00
2023-11-28T11:52:59.864Z,3052.00
2023-11-28T11:53:59.892Z,3276.00
2023-11-28T11:54:59.973Z,3604.00
2023-11-28T11:56:00.072Z,4024.00
2023-11-28T11:57:00.171Z,4284.00
2023-11-28T11:58:01.572Z,4352.00
2023-11-28T11:59:00.344Z,4380.00
2023-11-28T12:00:00.398Z,4544.00
2023-11-28T12:01:00.493Z,4968.00
2023-11-28T12:02:00.660Z,5300.00
2023-11-28T12:03:00.772Z,5568.00
2023-11-28T12:04:00.775Z,5588.00
2023-11-28T12:05:03.072Z,5808.00
2023-11-28T12:06:01.388Z,6112.00
2023-11-28T12:07:00.943Z,6152.00
2023-11-28T12:08:01.063Z,6160.00
2023-11-28T12:09:01.144Z,6076.00
2023-11-28T12:10:01.209Z,5740.00
2023-11-28T12:11:02.477Z,5332.00
2023-11-28T12:12:01.382Z,5372.00
2023-11-28T12:13:01.489Z,5040.00
2023-11-28T12:14:01.544Z,4476.00
2023-11-28T12:15:01.622Z,4180.00
2023-11-28T12:16:01.729Z,4012.00
2023-11-28T12:17:01.829Z,3924.00
2023-11-28T12:18:01.999Z,4024.00
2023-11-28T12:19:01.905Z,4332.00
2023-11-28T12:20:02.084Z,4676.00
2023-11-28T12:21:02.131Z,4780.00
2023-11-28T12:22:02.173Z,4864.00
2023-11-28T12:23:02.297Z,4868.00
2023-11-28T12:24:02.335Z,4724.00
2023-11-28T12:25:02.406Z,4744.00
2023-11-28T12:26:02.506Z,4728.00
2023-11-28T12:27:02.542Z,4680.00
2023-11-28T12:28:02.634Z,4512.00
2023-11-28T12:29:02.719Z,4292.00
2023-11-28T12:30:02.808Z,4136.00
2023-11-28T12:31:02.883Z,4012.00
2023-11-28T12:32:03.045Z,3884.00
2023-11-28T12:33:03.176Z,3776.00
2023-11-28T12:34:03.123Z,3708.00
2023-11-28T12:35:03.225Z,3636.00
2023-11-28T12:36:03.294Z,3536.00
2023-11-28T12:37:03.374Z,3360.00
2023-11-28T12:38:03.485Z,3224.00
2023-11-28T12:39:03.548Z,3120.00
2023-11-28T12:40:03.628Z,3024.00
2023-11-28T12:41:12.537Z,2896.00
2023-11-28T12:42:03.783Z,2772.00
2023-11-28T12:43:03.931Z,2696.00
2023-11-28T12:44:03.991Z,2680.00
2023-11-28T12:45:04.039Z,2680.00
2023-11-28T12:46:04.161Z,2660.00
2023-11-28T12:47:04.192Z,2620.00
2023-11-28T12:48:04.347Z,2600.00
2023-11-28T12:49:04.372Z,2556.00